Time;durP1;ratioP1;P1;durP2;ratioP2;P2;SDS_P1;SDS_P2;PMS_P1;PMS_P2;Temp;Humidity;BMP_temperature;BMP_pressure;BME280_temperature;BME280_humidity;BME280_pressure;Samples;Min_cycle;Max_cycle;Signal;HPM_P1;HPM_P2
2022/06/15 00:00:06;;;;;;;6.47;5.18;;;;;;;21.81;79.43;99581.25;5110727;28;20197;-60
2022/06/15 00:02:33;;;;;;;4.97;4.38;;;;;;;21.83;78.62;99579.34;5110876;28;20677;-60
2022/06/15 00:05:02;;;;;;;5.05;4.75;;;;;;;21.78;78.43;99584.16;5110620;28;20226;-60
2022/06/15 00:07:28;;;;;;;5.30;4.10;;;;;;;21.75;78.81;99582.56;5110737;28;20656;-60
2022/06/15 00:09:55;;;;;;;3.95;3.75;;;;;;;21.72;78.81;99582.78;5110349;28;20201;-61
2022/06/15 00:12:22;;;;;;;4.20;3.80;;;;;;;21.73;79.11;99577.38;5110565;28;20198;-61
2022/06/15 00:14:49;;;;;;;4.03;3.70;;;;;;;21.72;78.12;99575.69;5110794;28;20194;-60
2022/06/15 00:17:16;;;;;;;4.30;3.90;;;;;;;21.83;77.76;99574.06;5108667;28;20208;-61
2022/06/15 00:19:43;;;;;;;4.70;4.30;;;;;;;21.81;78.18;99574.16;5110578;28;20194;-61
2022/06/15 00:22:12;;;;;;;4.85;3.30;;;;;;;21.73;78.36;99571.25;5110337;28;20285;-61
2022/06/15 00:24:39;;;;;;;3.60;3.30;;;;;;;21.69;78.13;99565.34;5110208;28;20218;-61
2022/06/15 00:27:06;;;;;;;4.50;3.60;;;;;;;21.67;77.82;99566.44;5110447;28;20208;-61
2022/06/15 00:29:37;;;;;;;4.30;3.70;;;;;;;21.67;78.12;99571.72;5110519;28;20202;-59
2022/06/15 00:32:05;;;;;;;3.85;3.65;;;;;;;21.57;77.68;99568.03;5110150;28;20285;-58
2022/06/15 00:34:32;;;;;;;3.70;3.50;;;;;;;21.54;77.44;99560.38;5110287;28;20194;-59
2022/06/15 00:37:00;;;;;;;3.80;3.60;;;;;;;21.50;78.17;99570.31;5110291;28;20232;-59
2022/06/15 00:39:29;;;;;;;4.60;3.50;;;;;;;21.57;77.95;99571.53;5110854;28;20648;-59
2022/06/15 00:41:56;;;;;;;5.57;3.70;;;;;;;21.60;77.68;99576.59;5110693;28;20281;-58
2022/06/15 00:44:34;;;;;;;4.35;3.90;;;;;;;21.59;76.78;99580.19;5110266;28;20218;-60
2022/06/15 00:47:03;;;;;;;3.58;3.28;;;;;;;21.55;76.31;99585.81;5110457;28;20637;-60
2022/06/15 00:49:34;;;;;;;3.92;3.63;;;;;;;21.43;76.60;99584.91;5110112;28;20656;-60
2022/06/15 00:52:05;;;;;;;4.07;3.65;;;;;;;21.36;77.33;99584.50;5110695;28;20560;-58
2022/06/15 00:54:33;;;;;;;5.13;3.53;;;;;;;21.40;76.58;99595.69;5110191;28;20282;-59
2022/06/15 00:57:04;;;;;;;3.78;3.47;;;;;;;21.34;76.08;99589.03;5110380;28;20199;-58
2022/06/15 00:59:34;;;;;;;3.47;3.15;;;;;;;21.38;75.58;99589.69;5110336;28;20691;-59
2022/06/15 01:02:01;;;;;;;5.28;3.20;;;;;;;21.35;75.30;99587.25;5110266;28;20195;-60
2022/06/15 01:04:36;;;;;;;3.58;3.38;;;;;;;21.29;75.55;99587.69;5110096;28;20219;-61
2022/06/15 01:07:11;;;;;;;4.15;3.28;;;;;;;21.27;75.88;99576.41;5110373;28;20582;-60
2022/06/15 01:09:48;;;;;;;7.63;3.47;;;;;;;21.27;75.03;99581.69;5110085;28;20577;-60
2022/06/15 01:12:21;;;;;;;4.63;2.95;;;;;;;21.28;74.88;99586.00;5109998;28;20198;-60
2022/06/15 01:15:22;;;;;;;3.38;3.05;;;;;;;21.21;74.50;99584.78;5110015;28;20191;-61
2022/06/15 01:18:11;;;;;;;3.60;3.30;;;;;;;21.16;74.89;99579.78;5109906;28;20369;-61
2022/06/15 01:20:53;;;;;;;3.88;3.40;;;;;;;21.16;75.21;99576.28;5109872;28;20199;-61
2022/06/15 01:23:56;;;;;;;4.07;3.47;;;;;;;21.11;74.81;99575.75;5112069;28;20190;-61
2022/06/15 01:27:02;;;;;;;3.67;3.38;;;;;;;21.14;73.78;99559.72;5113643;28;20190;-61
2022/06/15 01:30:11;;;;;;;3.42;3.20;;;;;;;21.11;74.19;99575.75;5113836;28;20275;-61
2022/06/15 01:32:46;;;;;;;3.83;3.25;;;;;;;21.15;73.97;99569.31;5091221;28;20531;-61
2022/06/15 01:35:20;;;;;;;3.78;3.30;;;;;;;21.06;73.86;99570.00;5113337;28;20186;-62
2022/06/15 01:37:57;;;;;;;3.22;3.03;;;;;;;21.04;74.53;99567.44;5113523;28;20208;-62
2022/06/15 01:40:29;;;;;;;4.65;3.20;;;;;;;21.02;74.63;99569.34;5113562;28;20201;-62
2022/06/15 01:43:01;;;;;;;3.50;3.30;;;;;;;20.96;74.56;99564.53;5113393;28;20202;-62
2022/06/15 01:45:34;;;;;;;5.25;3.45;;;;;;;20.93;74.63;99560.28;5113024;28;20225;-62
2022/06/15 01:48:05;;;;;;;3.33;3.10;;;;;;;20.88;75.08;99572.16;5113360;28;20311;-62
2022/06/15 01:50:37;;;;;;;3.42;3.15;;;;;;;20.88;74.77;99578.22;5113418;28;20675;-61
2022/06/15 01:53:13;;;;;;;3.92;3.05;;;;;;;20.87;74.12;99576.56;5113203;28;20190;-59
2022/06/15 01:55:47;;;;;;;3.63;2.72;;;;;;;20.94;74.26;99580.47;5113088;28;20248;-59
2022/06/15 01:58:16;;;;;;;5.88;3.30;;;;;;;20.95;74.35;99578.66;5112900;28;20586;-59
2022/06/15 02:00:52;;;;;;;4.43;3.30;;;;;;;20.88;74.56;99585.34;5113179;28;20415;-60
2022/06/15 02:03:26;;;;;;;3.97;3.55;;;;;;;20.85;74.34;99585.53;5112915;28;20289;-59
2022/06/15 02:05:57;;;;;;;5.65;3.25;;;;;;;20.92;73.78;99581.50;5112855;28;20294;-59
2022/06/15 02:08:32;;;;;;;3.13;2.92;;;;;;;20.91;73.81;99587.75;5112740;28;20285;-60
2022/06/15 02:11:07;;;;;;;3.85;3.40;;;;;;;20.97;72.94;99588.16;5112707;28;20194;-61
2022/06/15 02:13:42;;;;;;;3.42;3.00;;;;;;;20.96;72.31;99591.75;5112990;28;20606;-61
2022/06/15 02:16:17;;;;;;;4.15;3.10;;;;;;;20.86;72.89;99593.34;5112529;28;20190;-62
2022/06/15 02:18:47;;;;;;;4.07;3.70;;;;;;;20.88;72.20;99594.06;5112590;28;20280;-61
2022/06/15 02:21:17;;;;;;;3.67;3.47;;;;;;;20.83;72.78;99601.47;5112365;28;20585;-58
2022/06/15 02:23:46;;;;;;;3.63;3.33;;;;;;;20.86;72.70;99605.69;5112450;28;20293;-58
2022/06/15 02:26:15;;;;;;;5.32;3.33;;;;;;;20.85;72.87;99604.84;5112361;28;20225;-58
2022/06/15 02:28:49;;;;;;;3.40;3.10;;;;;;;20.84;73.02;99600.53;5112578;28;20672;-58
2022/06/15 02:31:18;;;;;;;3.40;3.20;;;;;;;20.85;72.56;99601.38;5112479;28;20673;-58
2022/06/15 02:33:51;;;;;;;3.97;3.30;;;;;;;20.79;72.84;99610.53;5111480;28;20593;-58
2022/06/15 02:36:18;;;;;;;3.60;3.20;;;;;;;20.79;72.56;99605.25;5112335;28;20581;-58
2022/06/15 02:38:47;;;;;;;4.63;3.33;;;;;;;20.78;71.80;99606.22;5112252;28;20294;-59
2022/06/15 02:41:14;;;;;;;5.93;3.08;;;;;;;20.76;71.74;99617.84;5112203;28;20672;-58
2022/06/15 02:43:43;;;;;;;5.57;3.30;;;;;;;20.72;71.73;99611.94;5111908;28;20198;-59
2022/06/15 02:46:13;;;;;;;3.70;3.30;;;;;;;20.78;71.35;99626.47;5111804;28;20704;-61
2022/06/15 02:48:42;;;;;;;5.35;3.03;;;;;;;20.78;71.00;99623.84;5111797;28;20264;-61
2022/06/15 02:51:15;;;;;;;5.93;3.42;;;;;;;20.74;71.54;99625.00;5112231;28;20224;-61
2022/06/15 02:53:43;;;;;;;3.47;3.13;;;;;;;20.71;71.06;99618.16;5111846;28;20194;-60
2022/06/15 02:56:13;;;;;;;3.88;3.45;;;;;;;20.77;70.27;99638.81;5111569;28;20272;-59
2022/06/15 02:58:43;;;;;;;3.28;3.00;;;;;;;20.78;68.99;99643.16;5111571;28;20197;-61
2022/06/15 03:01:10;;;;;;;3.83;3.40;;;;;;;20.76;68.80;99650.34;5111759;28;20200;-58
2022/06/15 03:03:39;;;;;;;3.28;3.03;;;;;;;20.77;68.49;99648.56;5111907;28;20195;-58
2022/06/15 03:06:10;;;;;;;3.42;3.20;;;;;;;20.84;68.48;99644.53;5111560;28;20225;-59
2022/06/15 03:08:37;;;;;;;5.68;3.25;;;;;;;20.90;69.00;99649.38;5111594;28;20190;-59
2022/06/15 03:11:05;;;;;;;3.90;3.60;;;;;;;20.92;69.96;99645.69;5111639;28;20744;-59
2022/06/15 03:13:32;;;;;;;4.40;3.38;;;;;;;20.94;70.52;99645.59;5110293;28;20701;-60
2022/06/15 03:15:59;;;;;;;5.35;3.40;;;;;;;20.83;70.26;99627.84;5111616;28;20648;-60
2022/06/15 03:18:26;;;;;;;3.33;3.13;;;;;;;21.04;69.55;99651.91;5102980;28;20224;-60
2022/06/15 03:20:56;;;;;;;3.35;3.00;;;;;;;21.09;69.51;99652.44;5102158;28;20298;-60
2022/06/15 03:23:25;;;;;;;4.47;4.03;;;;;;;21.16;68.43;99639.66;5091205;28;20204;-60
2022/06/15 03:25:54;;;;;;;4.68;3.35;;;;;;;21.32;67.64;99654.34;5107123;28;20249;-64
2022/06/15 03:28:22;;;;;;;5.28;3.85;;;;;;;21.49;67.34;99666.34;5109627;28;20201;-63
2022/06/15 03:30:49;;;;;;;4.88;3.90;;;;;;;21.54;66.88;99664.22;5108521;28;20218;-63
2022/06/15 03:33:16;;;;;;;4.40;3.10;;;;;;;21.53;66.34;99662.53;5109209;28;20194;-64
2022/06/15 03:35:43;;;;;;;5.60;3.25;;;;;;;21.57;65.06;99661.34;5109885;28;20186;-64
2022/06/15 03:38:10;;;;;;;3.58;3.38;;;;;;;21.60;64.95;99671.69;5108631;28;20277;-64
2022/06/15 03:40:40;;;;;;;4.20;3.70;;;;;;;21.83;65.30;99666.53;5106277;28;20202;-63
2022/06/15 03:43:08;;;;;;;3.83;3.50;;;;;;;21.92;64.24;99666.72;5107607;28;20198;-64
2022/06/15 03:45:35;;;;;;;6.57;3.78;;;;;;;21.83;64.23;99655.97;5106248;28;20214;-64
2022/06/15 03:48:03;;;;;;;5.57;3.28;;;;;;;22.10;63.84;99675.16;5107752;28;20226;-64
2022/06/15 03:50:33;;;;;;;4.22;3.72;;;;;;;22.26;63.66;99666.91;5107197;28;20316;-64
2022/06/15 03:53:00;;;;;;;3.63;3.33;;;;;;;22.98;61.23;99671.09;5106550;28;20198;-64
2022/06/15 03:55:28;;;;;;;3.45;3.25;;;;;;;23.95;58.47;99664.28;5107070;28;20233;-64
2022/06/15 03:57:57;;;;;;;5.25;3.28;;;;;;;25.80;53.01;99674.94;5107342;28;20199;-64
2022/06/15 04:00:27;;;;;;;4.50;3.63;;;;;;;27.52;47.52;99682.03;5105995;28;20195;-64
2022/06/15 04:02:54;;;;;;;3.20;3.00;;;;;;;28.81;43.88;99687.88;5107221;28;20190;-64
2022/06/15 04:05:25;;;;;;;6.20;2.85;;;;;;;29.67;41.76;99699.41;5106864;28;20252;-65
2022/06/15 04:10:36;;;;;;;3.53;2.80;;;;;;;30.71;39.12;99694.41;5107598;28;20670;-65
2022/06/15 04:13:05;;;;;;;3.90;2.92;;;;;;;30.30;39.65;99702.41;5107528;28;20198;-64
2022/06/15 04:15:32;;;;;;;3.78;3.00;;;;;;;29.83;40.52;99706.63;5107556;28;20590;-64
2022/06/15 04:17:59;;;;;;;3.80;3.25;;;;;;;30.33;38.99;99688.69;5106950;28;20202;-64
2022/06/15 04:20:33;;;;;;;4.85;2.80;;;;;;;31.18;37.82;99707.94;5106712;28;20625;-61
2022/06/15 04:23:01;;;;;;;3.38;2.72;;;;;;;32.54;35.37;99714.66;5105575;28;20248;-65
2022/06/15 04:25:30;;;;;;;4.78;2.67;;;;;;;34.28;32.63;99707.88;5108189;28;20222;-62
2022/06/15 04:27:58;;;;;;;6.50;2.58;;;;;;;35.10;31.20;99721.66;5106358;28;20629;-64
2022/06/15 04:30:27;;;;;;;3.42;3.00;;;;;;;35.62;29.58;99717.59;5108531;28;20190;-64
2022/06/15 04:32:54;;;;;;;6.57;3.47;;;;;;;35.91;29.89;99720.03;5108411;28;20199;-66
2022/06/15 04:35:20;;;;;;;3.72;2.75;;;;;;;36.19;29.48;99728.03;5109902;28;20205;-62
2022/06/15 04:37:47;;;;;;;12.27;3.83;;;;;;;36.57;29.09;99725.59;5109898;28;20194;-65
2022/06/15 04:40:14;;;;;;;5.20;2.60;;;;;;;37.43;27.72;99737.25;5108633;28;20201;-63
2022/06/15 04:42:42;;;;;;;5.25;3.05;;;;;;;37.99;26.85;99736.63;5109756;28;20194;-64
2022/06/15 04:45:10;;;;;;;8.68;3.75;;;;;;;39.01;26.17;99735.56;5108993;28;20198;-61
2022/06/15 04:47:38;;;;;;;4.53;2.63;;;;;;;39.32;25.32;99733.78;5108730;28;20200;-61
2022/06/15 04:50:08;;;;;;;4.63;3.20;;;;;;;39.08;25.06;99730.91;5108742;28;20289;-60
2022/06/15 04:52:35;;;;;;;5.18;2.67;;;;;;;37.78;26.47;99729.66;5108552;28;20584;-60
2022/06/15 04:55:04;;;;;;;6.10;2.97;;;;;;;37.73;26.27;99729.44;5109148;28;20249;-60
2022/06/15 04:57:31;;;;;;;8.18;2.55;;;;;;;37.68;26.89;99721.16;5111678;28;20263;-60
2022/06/15 04:59:58;;;;;;;5.25;2.40;;;;;;;38.28;26.06;99724.38;5113417;28;20206;-61
2022/06/15 05:02:25;;;;;;;4.30;2.50;;;;;;;38.63;25.88;99735.66;5113678;28;20356;-60
2022/06/15 05:04:56;;;;;;;4.03;2.85;;;;;;;39.35;24.68;99736.91;5113913;28;20202;-65
2022/06/15 05:07:23;;;;;;;5.57;2.67;;;;;;;39.97;24.46;99726.78;5113793;28;20695;-65
2022/06/15 05:09:51;;;;;;;5.68;3.28;;;;;;;40.35;23.82;99728.38;5094260;28;20210;-61
2022/06/15 05:12:18;;;;;;;2.53;2.20;;;;;;;39.96;23.66;99721.59;5093660;28;20677;-65
2022/06/15 05:14:47;;;;;;;8.13;2.85;;;;;;;39.28;24.41;99727.16;5095776;28;20190;-65
2022/06/15 05:17:14;;;;;;;3.40;2.55;;;;;;;39.46;24.45;99727.19;5102212;28;20210;-60
2022/06/15 05:19:41;;;;;;;6.05;3.00;;;;;;;39.50;24.61;99725.69;5092932;28;20214;-60
2022/06/15 05:22:10;;;;;;;3.30;2.55;;;;;;;39.24;24.21;99729.50;5093535;28;20219;-59
2022/06/15 05:24:38;;;;;;;7.50;3.50;;;;;;;39.11;24.83;99730.44;5109526;28;20232;-59
2022/06/15 05:27:05;;;;;;;3.70;3.30;;;;;;;39.44;24.18;99734.72;5111257;28;20236;-60
2022/06/15 05:29:32;;;;;;;6.97;3.50;;;;;;;39.34;24.24;99739.84;5112366;28;20657;-60
2022/06/15 05:31:59;;;;;;;4.25;2.95;;;;;;;38.70;24.12;99732.91;5112744;28;20226;-60
2022/06/15 05:34:26;;;;;;;4.10;2.60;;;;;;;38.64;23.75;99728.34;5113077;28;20221;-60
2022/06/15 05:36:53;;;;;;;3.60;2.97;;;;;;;38.47;23.76;99736.19;5112797;28;20300;-60
2022/06/15 05:39:22;;;;;;;4.00;2.75;;;;;;;38.81;23.44;99740.31;5112401;28;20214;-60
2022/06/15 05:41:50;;;;;;;4.60;2.78;;;;;;;38.42;23.72;99742.25;5112880;28;20308;-60
2022/06/15 05:44:19;;;;;;;3.72;2.60;;;;;;;38.33;23.72;99742.72;5112545;27;20226;-60
2022/06/15 05:46:46;;;;;;;6.07;2.72;;;;;;;37.60;23.10;99748.44;5112807;28;20236;-60
2022/06/15 05:49:13;;;;;;;2.78;2.65;;;;;;;37.28;23.41;99743.94;5112673;28;20682;-61
2022/06/15 05:51:41;;;;;;;3.78;2.80;;;;;;;38.34;23.24;99749.81;5112708;28;20217;-60
2022/06/15 05:54:07;;;;;;;6.43;2.72;;;;;;;38.15;23.02;99746.19;5093124;28;20230;-60
2022/06/15 05:56:36;;;;;;;2.53;2.30;;;;;;;38.13;23.46;99745.56;5112726;28;20232;-60
2022/06/15 05:59:03;;;;;;;5.10;2.83;;;;;;;37.92;23.42;99743.16;5113222;28;20660;-59
2022/06/15 06:01:32;;;;;;;5.80;2.78;;;;;;;37.54;24.20;99745.75;5112912;28;20725;-64
2022/06/15 06:04:00;;;;;;;4.82;2.70;;;;;;;37.93;23.83;99751.03;5112908;28;20285;-62
2022/06/15 06:06:28;;;;;;;3.33;2.72;;;;;;;37.64;24.04;99754.28;5112642;28;20228;-63
2022/06/15 06:08:55;;;;;;;2.92;2.70;;;;;;;37.25;23.95;99745.19;5112007;28;20233;-63
2022/06/15 06:11:23;;;;;;;5.85;2.72;;;;;;;37.49;24.30;99753.66;5112858;28;20602;-63
2022/06/15 06:13:51;;;;;;;3.63;2.60;;;;;;;36.66;24.54;99743.31;5112659;28;20205;-62
2022/06/15 06:16:18;;;;;;;6.55;2.80;;;;;;;36.18;25.13;99747.16;5112630;28;20187;-62
2022/06/15 06:18:45;;;;;;;5.05;2.75;;;;;;;36.38;25.16;99742.63;5112689;27;20202;-60
2022/06/15 06:21:13;;;;;;;6.78;2.55;;;;;;;36.27;24.63;99740.53;5110025;28;20286;-60
2022/06/15 06:23:40;;;;;;;7.40;3.25;;;;;;;35.90;25.18;99750.78;5101208;28;20687;-58
2022/06/15 06:26:07;;;;;;;4.88;2.58;;;;;;;35.42;26.08;99741.81;5091005;28;20253;-59
2022/06/15 06:28:38;;;;;;;13.70;3.13;;;;;;;35.05;26.39;99745.69;5091121;28;20221;-59
2022/06/15 06:31:10;;;;;;;10.32;3.25;;;;;;;35.43;26.67;99737.25;5091110;28;20195;-59
2022/06/15 06:33:37;;;;;;;7.57;2.78;;;;;;;34.74;27.13;99751.44;5099910;27;20199;-63
2022/06/15 06:36:07;;;;;;;22.60;3.63;;;;;;;34.20;28.10;99748.38;5093968;28;20636;-62
2022/06/15 06:38:34;;;;;;;5.95;2.53;;;;;;;33.32;29.35;99743.88;5090927;28;20195;-62
2022/06/15 06:41:01;;;;;;;11.30;3.17;;;;;;;32.88;30.88;99740.28;5097641;28;20221;-61
2022/06/15 06:43:28;;;;;;;4.72;3.05;;;;;;;32.69;30.70;99741.59;5097225;28;20975;-63
2022/06/15 06:45:55;;;;;;;7.38;3.13;;;;;;;32.67;30.79;99738.25;5095953;28;20227;-60
2022/06/15 06:48:23;;;;;;;7.30;3.45;;;;;;;32.61;31.15;99733.59;5099684;27;20603;-59
2022/06/15 06:50:53;;;;;;;4.20;2.65;;;;;;;32.16;31.02;99737.09;5108818;28;20211;-59
2022/06/15 06:53:20;;;;;;;6.00;3.50;;;;;;;31.24;33.32;99722.53;5110350;28;20805;-59
2022/06/15 06:55:47;;;;;;;3.75;3.22;;;;;;;31.65;32.04;99732.13;5111743;28;20773;-59
2022/06/15 06:58:14;;;;;;;3.20;2.95;;;;;;;31.58;34.00;99728.44;5111810;28;20201;-59
2022/06/15 07:00:41;;;;;;;9.43;3.85;;;;;;;31.83;33.43;99728.38;5111255;28;20201;-62
2022/06/15 07:03:08;;;;;;;5.30;2.90;;;;;;;31.48;32.50;99727.81;5111908;28;20252;-62
2022/06/15 07:05:37;;;;;;;8.43;3.63;;;;;;;31.24;33.26;99735.94;5108549;28;20222;-62
2022/06/15 07:08:05;;;;;;;6.32;3.10;;;;;;;31.46;33.07;99729.00;5092821;28;20222;-58
2022/06/15 07:10:32;;;;;;;8.80;3.28;;;;;;;31.80;32.12;99734.09;5098500;28;20268;-58
2022/06/15 07:12:58;;;;;;;3.25;2.78;;;;;;;31.85;31.55;99731.69;5090932;28;20218;-59
2022/06/15 07:15:26;;;;;;;5.03;3.45;;;;;;;31.92;31.85;99730.00;5091159;28;20290;-59
2022/06/15 07:17:54;;;;;;;8.35;3.25;;;;;;;32.36;30.91;99733.78;5091044;28;20192;-59
2022/06/15 07:20:21;;;;;;;6.03;3.60;;;;;;;32.91;31.03;99735.38;5090967;28;20252;-59
2022/06/15 07:22:50;;;;;;;6.70;3.10;;;;;;;33.34;29.44;99735.63;5091236;28;20699;-59
2022/06/15 07:25:16;;;;;;;7.03;2.83;;;;;;;33.40;29.61;99741.13;5091103;28;20191;-59
2022/06/15 07:27:44;;;;;;;7.57;3.58;;;;;;;32.70;30.08;99741.41;5090751;28;20231;-59
2022/06/15 07:30:15;;;;;;;7.05;3.58;;;;;;;33.05;30.23;99742.66;5090943;28;20215;-60
2022/06/15 07:32:43;;;;;;;6.05;4.43;;;;;;;33.35;29.69;99742.69;5090898;28;20198;-59
2022/06/15 07:35:15;;;;;;;5.75;3.17;;;;;;;33.51;29.42;99735.28;5090802;28;20210;-60
2022/06/15 07:37:42;;;;;;;5.80;3.42;;;;;;;33.48;29.81;99735.66;5090722;28;20187;-59
2022/06/15 07:40:13;;;;;;;5.05;3.30;;;;;;;33.72;29.63;99739.91;5090627;28;20290;-62
2022/06/15 07:42:40;;;;;;;6.43;3.40;;;;;;;34.08;29.54;99739.97;5090515;28;20205;-62
2022/06/15 07:45:09;;;;;;;4.22;3.10;;;;;;;34.35;29.13;99743.78;5090810;28;20604;-61
2022/06/15 07:50:21;;;;;;;7.90;3.00;;;;;;;33.66;29.38;99737.94;5091115;28;20257;-62
2022/06/15 07:52:51;;;;;;;5.50;3.33;;;;;;;34.01;29.73;99735.50;5091083;28;20206;-62
2022/06/15 07:55:23;;;;;;;7.15;4.38;;;;;;;34.28;29.02;99742.91;5097121;28;20222;-62
2022/06/15 07:57:50;;;;;;;4.88;4.38;;;;;;;34.58;28.82;99730.13;5111537;28;20205;-63
2022/06/15 08:00:22;;;;;;;12.85;7.72;;;;;;;34.90;28.15;99737.69;5111515;28;20694;-62
2022/06/15 08:02:51;;;;;;;4.20;2.70;;;;;;;35.22;27.58;99735.41;5110739;28;20194;-63
2022/06/15 08:05:20;;;;;;;4.18;3.50;;;;;;;34.92;28.48;99737.47;5109632;28;20209;-61
2022/06/15 08:07:49;;;;;;;9.27;3.88;;;;;;;35.18;27.94;99715.25;5109494;28;20210;-61
2022/06/15 08:10:20;;;;;;;7.72;3.72;;;;;;;35.78;27.84;99741.59;5109675;28;20729;-62
2022/06/15 08:12:48;;;;;;;2.85;2.60;;;;;;;34.95;27.10;99734.41;5109472;28;20554;-62
2022/06/15 08:15:15;;;;;;;5.28;2.60;;;;;;;35.09;28.10;99728.09;5109104;28;20196;-62
2022/06/15 08:17:46;;;;;;;3.80;2.97;;;;;;;35.03;27.70;99734.25;5109051;28;20281;-62
2022/06/15 08:20:17;;;;;;;3.85;2.60;;;;;;;35.08;27.13;99734.50;5107217;28;20277;-63
2022/06/15 08:22:48;;;;;;;3.63;3.30;;;;;;;35.66;27.62;99732.38;5109159;28;20205;-59
2022/06/15 08:25:21;;;;;;;5.78;2.88;;;;;;;36.06;27.82;99730.69;5109058;28;20194;-60
2022/06/15 08:27:48;;;;;;;2.75;2.55;;;;;;;36.46;27.08;99728.13;5110612;28;20225;-59
2022/06/15 08:30:16;;;;;;;3.22;3.03;;;;;;;36.79;26.84;99733.56;5110098;28;20699;-62
2022/06/15 08:32:44;;;;;;;11.65;3.17;;;;;;;36.77;27.12;99735.66;5113348;28;20198;-62
2022/06/15 08:35:12;;;;;;;4.38;2.80;;;;;;;36.77;27.97;99732.94;5114660;27;20198;-62
2022/06/15 08:37:39;;;;;;;8.88;4.03;;;;;;;36.69;28.39;99742.91;5114611;28;20197;-62
2022/06/15 08:40:08;;;;;;;2.75;2.55;;;;;;;36.38;27.75;99738.06;5114650;28;20199;-63
2022/06/15 08:42:43;;;;;;;4.32;3.00;;;;;;;36.27;28.27;99721.63;5114293;28;20771;-63
2022/06/15 08:45:19;;;;;;;5.55;3.70;;;;;;;35.93;28.69;99734.19;5114611;28;20210;-63
2022/06/15 08:48:01;;;;;;;3.97;3.05;;;;;;;35.37;29.47;99736.16;5114271;28;20224;-62
2022/06/15 08:50:34;;;;;;;5.50;3.83;;;;;;;34.76;30.27;99727.84;5114629;28;20715;-62
2022/06/15 08:53:10;;;;;;;5.13;3.30;;;;;;;34.27;31.80;99738.53;5114352;28;20293;-61
2022/06/15 08:55:42;;;;;;;3.90;3.40;;;;;;;34.00;31.16;99733.81;5106892;28;20236;-61
2022/06/15 08:58:16;;;;;;;4.43;3.05;;;;;;;33.50;32.46;99727.38;5093593;28;20198;-60
2022/06/15 09:00:46;;;;;;;3.08;2.85;;;;;;;33.45;31.67;99729.78;5093674;28;20195;-60
2022/06/15 09:03:24;;;;;;;5.13;3.20;;;;;;;33.66;31.99;99727.16;5094109;28;20195;-60
2022/06/15 09:06:01;;;;;;;3.28;3.05;;;;;;;33.95;31.52;99729.03;5093861;28;20588;-59
2022/06/15 09:09:03;;;;;;;7.43;3.50;;;;;;;33.72;31.68;99726.44;5099326;28;20710;-60
2022/06/15 09:11:46;;;;;;;10.27;5.25;;;;;;;33.58;32.26;99726.44;5110426;28;20726;-60
2022/06/15 09:14:28;;;;;;;4.13;3.67;;;;;;;33.13;31.57;99730.97;5113821;28;20291;-60
2022/06/15 09:17:03;;;;;;;7.90;3.78;;;;;;;32.98;32.18;99714.78;5113402;28;20278;-60
2022/06/15 09:19:34;;;;;;;4.60;4.10;;;;;;;33.16;32.40;99722.53;5113817;28;20660;-60
2022/06/15 09:22:04;;;;;;;6.18;4.70;;;;;;;33.31;33.69;99706.41;5113686;28;20208;-61
2022/06/15 09:24:38;;;;;;;5.50;5.00;;;;;;;32.68;35.37;99710.34;5113555;28;20198;-60
2022/06/15 09:27:10;;;;;;;4.55;4.15;;;;;;;32.94;35.25;99716.19;5113535;28;20222;-60
2022/06/15 09:29:44;;;;;;;5.13;4.15;;;;;;;33.34;33.95;99717.63;5113412;28;20202;-60
2022/06/15 09:32:17;;;;;;;5.63;3.05;;;;;;;33.61;33.36;99721.53;5113569;28;20581;-59
2022/06/15 09:34:54;;;;;;;6.57;4.20;;;;;;;33.66;34.20;99726.34;5113319;28;20201;-61
2022/06/15 09:37:25;;;;;;;5.47;4.95;;;;;;;33.54;33.31;99715.22;5113745;28;20198;-62
2022/06/15 09:39:52;;;;;;;6.60;4.10;;;;;;;33.48;32.87;99711.44;5113471;28;20202;-62
2022/06/15 09:42:22;;;;;;;7.65;5.95;;;;;;;33.56;31.63;99706.94;5113408;28;20194;-62
2022/06/15 09:44:58;;;;;;;5.30;4.80;;;;;;;33.36;32.87;99717.47;5112382;28;20282;-62
2022/06/15 09:47:38;;;;;;;9.10;8.25;;;;;;;33.61;33.05;99718.84;5113108;28;20309;-61
2022/06/15 09:50:18;;;;;;;6.07;5.57;;;;;;;32.97;32.85;99709.59;5112998;28;20201;-61
2022/06/15 09:52:56;;;;;;;6.30;5.70;;;;;;;33.06;33.21;99712.03;5113195;28;20285;-61
2022/06/15 09:55:34;;;;;;;14.27;8.70;;;;;;;33.27;33.05;99716.72;5112789;28;20314;-61
2022/06/15 09:58:03;;;;;;;14.38;10.40;;;;;;;33.49;32.88;99704.19;5113274;28;20204;-62
2022/06/15 10:00:31;;;;;;;5.15;4.65;;;;;;;33.32;32.23;99708.06;5113180;28;20199;-61
2022/06/15 10:03:02;;;;;;;4.55;4.25;;;;;;;33.54;32.65;99709.81;5112968;28;20198;-64
2022/06/15 10:05:33;;;;;;;6.15;4.72;;;;;;;32.99;34.37;99707.56;5112944;28;20198;-62
2022/06/15 10:08:04;;;;;;;3.83;3.63;;;;;;;32.71;33.19;99701.97;5112633;28;20229;-62
2022/06/15 10:10:34;;;;;;;5.05;4.70;;;;;;;32.55;34.34;99707.44;5112843;28;20194;-61
2022/06/15 10:13:06;;;;;;;3.88;3.67;;;;;;;32.44;33.36;99708.69;5112860;28;20202;-62
2022/06/15 10:15:49;;;;;;;4.22;3.80;;;;;;;32.35;33.34;99709.78;5112612;28;20202;-62
2022/06/15 10:18:21;;;;;;;3.50;3.17;;;;;;;32.26;33.59;99709.00;5112637;28;20194;-61
2022/06/15 10:20:59;;;;;;;3.38;3.08;;;;;;;32.19;33.49;99708.03;5111789;28;20201;-61
2022/06/15 10:23:35;;;;;;;5.97;4.30;;;;;;;32.13;35.02;99697.16;5110726;28;20248;-61
2022/06/15 10:26:03;;;;;;;4.60;4.18;;;;;;;32.18;33.99;99703.66;5110779;28;20190;-60
2022/06/15 10:28:35;;;;;;;3.95;3.45;;;;;;;31.83;32.57;99696.97;5110849;28;20279;-60
2022/06/15 10:31:07;;;;;;;4.18;3.85;;;;;;;31.75;32.86;99697.03;5110941;28;20695;-59
2022/06/15 10:33:40;;;;;;;4.95;3.83;;;;;;;31.73;34.99;99693.66;5111269;28;20581;-60
2022/06/15 10:36:21;;;;;;;5.38;3.35;;;;;;;31.61;36.42;99682.47;5111530;28;20194;-62
2022/06/15 10:38:53;;;;;;;4.90;4.20;;;;;;;31.59;37.46;99684.50;5111454;28;20224;-60
2022/06/15 10:44:04;;;;;;;4.63;4.22;;;;;;;31.31;34.29;99681.41;5112071;28;20189;-62
2022/06/15 10:46:51;;;;;;;6.57;4.80;;;;;;;31.13;34.90;99682.66;5112128;28;20792;-61
2022/06/15 10:49:18;;;;;;;7.55;4.05;;;;;;;31.20;36.11;99670.22;5112045;28;20195;-61
2022/06/15 10:51:45;;;;;;;4.28;3.58;;;;;;;31.24;35.24;99679.59;5111174;28;20195;-62
2022/06/15 10:54:20;;;;;;;4.07;3.75;;;;;;;31.02;35.52;99678.47;5111445;28;20194;-61
2022/06/15 11:02:29;;;;;;;6.35;3.90;;;;;;;31.08;33.90;99676.94;5109369;28;20186;-62
2022/06/15 11:04:59;;;;;;;2.90;2.70;;;;;;;31.05;32.20;99672.72;5109631;28;20660;-62
2022/06/15 11:07:31;;;;;;;5.43;3.20;;;;;;;31.16;32.87;99660.84;5111151;28;20221;-61
2022/06/15 11:10:10;;;;;;;4.60;3.80;;;;;;;31.13;36.08;99663.88;5111492;28;20255;-62
2022/06/15 11:12:41;;;;;;;3.65;3.40;;;;;;;30.95;37.78;99666.72;5111279;28;20197;-62
2022/06/15 11:18:22;;;;;;;3.70;3.40;;;;;;;30.53;38.11;99661.59;5111348;28;20203;-62
2022/06/15 11:20:54;;;;;;;4.50;3.90;;;;;;;30.70;36.74;99663.25;5111323;28;20668;-61
2022/06/15 11:23:25;;;;;;;3.88;3.15;;;;;;;30.74;38.77;99664.59;5111602;28;20204;-60
2022/06/15 11:25:57;;;;;;;3.88;3.53;;;;;;;30.68;39.45;99660.78;5111258;28;20190;-60
2022/06/15 11:28:29;;;;;;;3.75;3.53;;;;;;;30.46;40.31;99669.47;5111050;28;20223;-61
2022/06/15 11:30:59;;;;;;;4.38;3.40;;;;;;;30.34;40.58;99657.41;5111073;28;20294;-61
2022/06/15 11:33:36;;;;;;;3.75;3.45;;;;;;;30.30;40.86;99656.06;5110923;28;20202;-60
2022/06/15 11:36:10;;;;;;;3.88;3.63;;;;;;;30.26;39.34;99650.19;5111165;28;20296;-60
2022/06/15 11:38:47;;;;;;;3.72;3.40;;;;;;;30.06;39.90;99654.19;5111230;28;20213;-60
2022/06/15 11:41:25;;;;;;;3.35;3.10;;;;;;;29.95;39.08;99655.34;5110760;28;20274;-60
2022/06/15 11:43:54;;;;;;;4.07;3.78;;;;;;;29.85;40.24;99643.09;5090741;28;20287;-60
2022/06/15 11:46:37;;;;;;;4.32;3.20;;;;;;;29.90;41.01;99655.00;5090776;28;20263;-60
2022/06/15 11:49:14;;;;;;;3.63;3.40;;;;;;;30.12;39.23;99656.22;5090846;28;20591;-60
2022/06/15 11:51:57;;;;;;;3.10;3.00;;;;;;;29.85;38.64;99659.13;5090538;28;20592;-60
2022/06/15 11:54:38;;;;;;;4.13;3.10;;;;;;;29.76;39.87;99657.44;5090263;28;20195;-60
2022/06/15 11:57:14;;;;;;;3.05;2.80;;;;;;;29.60;40.66;99658.22;5090608;28;20252;-61
2022/06/15 11:59:49;;;;;;;7.35;3.42;;;;;;;29.53;40.33;99646.50;5090365;28;20290;-61
2022/06/15 12:02:24;;;;;;;4.20;3.47;;;;;;;29.54;40.39;99658.91;5090436;28;20197;-61
2022/06/15 12:05:21;;;;;;;3.30;3.15;;;;;;;29.46;40.60;99648.19;5090179;28;20198;-61
2022/06/15 12:08:00;;;;;;;3.45;3.25;;;;;;;29.42;40.42;99654.84;5107430;28;20810;-60